Time;durP1;ratioP1;P1;durP2;ratioP2;P2;SDS_P1;SDS_P2;PMS_P1;PMS_P2;Temp;Humidity;BMP_temperature;BMP_pressure;BME280_temperature;BME280_humidity;BME280_pressure;Samples;Min_cycle;Max_cycle;Signal;HPM_P1;HPM_P2
2022/04/07 00:01:16;;;;;;;2.03;1.92;;;12.40;65.00;;;;;;4996413;28;20182;-73
2022/04/07 00:03:42;;;;;;;2.03;1.95;;;12.40;65.10;;;;;;4994439;28;20700;-71
2022/04/07 00:06:11;;;;;;;1.38;1.38;;;12.30;64.90;;;;;;4995429;28;20682;-73
2022/04/07 00:08:37;;;;;;;3.33;1.95;;;12.30;64.70;;;;;;4997793;28;20221;-73
2022/04/07 00:11:04;;;;;;;1.83;1.83;;;12.30;65.00;;;;;;4995378;28;20203;-71
2022/04/07 00:13:30;;;;;;;2.30;2.10;;;12.30;64.90;;;;;;4995274;28;20687;-72
2022/04/07 00:15:58;;;;;;;2.40;2.30;;;12.30;63.80;;;;;;4991927;28;20775;-72
2022/04/07 00:18:24;;;;;;;2.97;2.00;;;12.30;64.70;;;;;;4993946;28;20189;-72
2022/04/07 00:20:52;;;;;;;2.40;2.28;;;12.30;66.10;;;;;;4995754;28;20366;-72
2022/04/07 00:23:21;;;;;;;2.47;2.38;;;12.30;65.10;;;;;;4991213;28;20189;-71
2022/04/07 00:25:47;;;;;;;2.10;1.98;;;12.30;65.00;;;;;;4989827;28;20181;-72
2022/04/07 00:28:13;;;;;;;2.67;2.47;;;12.30;65.80;;;;;;4991974;28;20296;-72
2022/04/07 00:30:39;;;;;;;1.90;1.80;;;12.30;66.00;;;;;;4996400;28;20260;-72
2022/04/07 00:33:07;;;;;;;2.47;2.28;;;12.20;65.60;;;;;;4995692;28;20216;-72
2022/04/07 00:35:33;;;;;;;3.25;2.30;;;12.20;66.00;;;;;;4992398;28;20980;-73
2022/04/07 00:37:59;;;;;;;2.05;1.90;;;12.20;65.50;;;;;;4989288;28;20243;-73
2022/04/07 00:40:25;;;;;;;1.75;1.65;;;12.10;64.60;;;;;;4993759;28;20239;-72
2022/04/07 00:42:52;;;;;;;2.28;1.80;;;12.10;64.90;;;;;;4997052;28;20214;-72
2022/04/07 00:45:20;;;;;;;2.28;1.92;;;12.00;65.20;;;;;;4993148;28;20220;-74
2022/04/07 00:47:47;;;;;;;3.22;1.73;;;12.10;66.00;;;;;;4988046;28;20813;-73
2022/04/07 00:50:14;;;;;;;2.28;1.58;;;12.10;66.30;;;;;;4995114;28;20189;-72
2022/04/07 00:52:43;;;;;;;2.10;1.88;;;12.00;66.60;;;;;;4992657;28;20193;-73
2022/04/07 00:55:12;;;;;;;3.45;2.25;;;12.00;66.30;;;;;;4994855;28;20220;-71
2022/04/07 00:57:39;;;;;;;1.90;1.80;;;12.00;67.10;;;;;;4991335;28;20182;-72
2022/04/07 01:00:07;;;;;;;1.63;1.63;;;12.00;66.30;;;;;;4995676;28;20180;-72
2022/04/07 01:02:33;;;;;;;1.80;1.63;;;11.90;67.00;;;;;;4996323;28;20267;-72
2022/04/07 01:04:59;;;;;;;2.83;1.83;;;11.90;67.10;;;;;;5009334;28;20284;-73
2022/04/07 01:07:25;;;;;;;1.85;1.63;;;11.90;66.40;;;;;;4991150;28;20226;-72
2022/04/07 01:09:52;;;;;;;2.78;1.70;;;12.00;66.30;;;;;;4992734;28;20220;-73
2022/04/07 01:12:18;;;;;;;2.65;1.58;;;12.00;66.30;;;;;;4991984;28;20177;-73
2022/04/07 01:14:55;;;;;;;2.03;1.75;;;12.00;66.30;;;;;;4992329;28;20191;-73
2022/04/07 01:17:21;;;;;;;1.50;1.40;;;11.90;65.50;;;;;;4994670;28;20181;-73
2022/04/07 01:19:47;;;;;;;2.13;2.00;;;11.90;65.90;;;;;;4994229;28;20193;-72
2022/04/07 01:22:14;;;;;;;2.28;1.90;;;11.90;66.50;;;;;;4994521;28;20252;-72
2022/04/07 01:24:40;;;;;;;2.70;1.92;;;12.00;66.20;;;;;;4993259;28;20182;-72
2022/04/07 01:27:06;;;;;;;1.75;1.70;;;12.00;66.60;;;;;;4994236;28;20185;-71
2022/04/07 01:29:31;;;;;;;1.70;1.60;;;12.00;66.70;;;;;;4990311;28;20219;-71
2022/04/07 01:32:06;;;;;;;1.33;1.33;;;11.90;66.70;;;;;;5025250;28;20190;-71
2022/04/07 01:34:32;;;;;;;2.20;2.00;;;11.90;66.20;;;;;;4993751;28;20744;-71
2022/04/07 01:36:58;;;;;;;2.63;1.65;;;11.80;65.60;;;;;;4992459;28;20187;-71
2022/04/07 01:39:27;;;;;;;1.77;1.77;;;11.80;65.70;;;;;;4990023;28;20445;-71
2022/04/07 01:41:54;;;;;;;2.00;1.90;;;11.70;65.00;;;;;;4993905;28;20186;-72
2022/04/07 01:44:23;;;;;;;1.65;1.65;;;11.70;64.70;;;;;;4993528;28;20217;-72
2022/04/07 01:46:51;;;;;;;1.83;1.73;;;11.70;64.90;;;;;;4990902;28;20202;-73
2022/04/07 01:49:19;;;;;;;1.60;1.60;;;11.80;67.40;;;;;;4989765;28;20324;-73
2022/04/07 01:51:46;;;;;;;1.80;1.80;;;11.80;67.20;;;;;;4995039;28;20581;-72
2022/04/07 01:54:14;;;;;;;1.40;1.40;;;11.80;66.70;;;;;;4993253;28;20213;-72
2022/04/07 01:56:41;;;;;;;1.33;1.33;;;11.80;66.90;;;;;;4994795;28;20197;-72
2022/04/07 01:59:08;;;;;;;1.50;1.40;;;11.80;67.00;;;;;;4990227;28;20350;-72
2022/04/07 02:01:34;;;;;;;1.57;1.57;;;11.80;66.80;;;;;;4993617;28;20182;-72
2022/04/07 02:04:00;;;;;;;1.88;1.58;;;11.60;67.50;;;;;;4992364;28;20583;-72
2022/04/07 02:06:27;;;;;;;2.77;1.70;;;11.60;67.10;;;;;;4987239;28;20220;-72
2022/04/07 02:08:54;;;;;;;1.60;1.60;;;11.60;66.80;;;;;;4993285;28;20217;-72
2022/04/07 02:11:22;;;;;;;1.77;1.55;;;11.70;67.50;;;;;;4993054;28;20633;-72
2022/04/07 02:13:49;;;;;;;1.77;1.55;;;11.60;67.10;;;;;;4992831;28;20279;-72
2022/04/07 02:16:15;;;;;;;3.27;1.47;;;11.60;67.40;;;;;;4990831;28;20220;-72
2022/04/07 02:18:41;;;;;;;2.33;1.60;;;11.60;68.00;;;;;;4993976;28;20197;-72
2022/04/07 02:21:08;;;;;;;1.20;1.20;;;11.70;67.40;;;;;;4990629;28;20197;-72
2022/04/07 02:23:41;;;;;;;1.60;1.60;;;11.70;67.30;;;;;;4987644;28;20185;-72
2022/04/07 02:26:12;;;;;;;1.50;1.40;;;11.70;67.20;;;;;;4989320;28;20182;-72
2022/04/07 02:28:38;;;;;;;1.48;1.48;;;11.60;67.80;;;;;;4989652;28;20208;-72
2022/04/07 02:31:04;;;;;;;1.55;1.45;;;11.60;68.20;;;;;;4988061;28;20184;-72
2022/04/07 02:33:30;;;;;;;1.60;1.60;;;11.50;68.40;;;;;;4992089;28;20182;-72
2022/04/07 02:35:56;;;;;;;1.70;1.60;;;11.50;68.90;;;;;;4990811;28;20193;-73
2022/04/07 02:38:22;;;;;;;1.40;1.40;;;11.50;68.40;;;;;;4990255;28;20680;-72
2022/04/07 02:40:47;;;;;;;1.70;1.60;;;11.50;68.60;;;;;;4994130;28;20316;-73
2022/04/07 02:43:13;;;;;;;1.43;1.43;;;11.50;68.70;;;;;;4987003;28;20675;-72
2022/04/07 02:45:39;;;;;;;1.57;1.47;;;11.50;68.70;;;;;;4990979;28;20192;-73
2022/04/07 02:48:04;;;;;;;1.00;1.00;;;11.50;69.00;;;;;;4990903;28;20217;-71
2022/04/07 02:50:30;;;;;;;2.87;1.47;;;11.60;68.20;;;;;;4985417;28;20204;-72
2022/04/07 02:52:56;;;;;;;1.37;1.27;;;11.60;68.40;;;;;;4994856;28;20186;-72
2022/04/07 02:55:22;;;;;;;1.45;1.35;;;11.60;69.10;;;;;;4992349;28;20189;-72
2022/04/07 02:57:47;;;;;;;1.45;1.35;;;11.50;69.10;;;;;;4991279;28;20192;-72
2022/04/07 03:00:14;;;;;;;1.73;1.33;;;11.50;69.00;;;;;;4992222;28;20182;-72
2022/04/07 03:02:39;;;;;;;1.83;1.48;;;11.60;68.50;;;;;;4991569;28;20188;-73
2022/04/07 03:05:05;;;;;;;1.20;1.20;;;11.60;69.00;;;;;;4991270;28;20197;-71
2022/04/07 03:07:31;;;;;;;1.42;1.33;;;11.70;68.60;;;;;;4991920;28;20185;-73
2022/04/07 03:09:57;;;;;;;1.40;1.38;;;11.70;68.60;;;;;;4993079;28;20216;-71
2022/04/07 03:12:22;;;;;;;1.20;1.20;;;11.70;68.60;;;;;;4991540;28;20195;-73
2022/04/07 03:14:48;;;;;;;1.63;1.50;;;11.70;68.10;;;;;;4993524;28;20328;-73
2022/04/07 03:17:14;;;;;;;1.75;1.25;;;11.80;68.00;;;;;;4993993;28;20208;-73
2022/04/07 03:19:39;;;;;;;1.50;1.35;;;11.80;68.10;;;;;;4991649;28;20182;-71
2022/04/07 03:22:05;;;;;;;1.63;1.50;;;11.80;68.00;;;;;;4995849;28;20197;-72
2022/04/07 03:24:31;;;;;;;1.30;1.30;;;11.80;68.60;;;;;;4989046;28;20272;-72
2022/04/07 03:26:57;;;;;;;1.33;1.33;;;11.80;68.60;;;;;;4997215;28;20184;-72
2022/04/07 03:29:22;;;;;;;1.70;1.60;;;11.70;68.40;;;;;;4991624;28;20710;-72
2022/04/07 03:31:48;;;;;;;1.23;1.20;;;11.80;68.10;;;;;;4987254;28;20400;-73
2022/04/07 03:34:14;;;;;;;4.60;1.27;;;11.80;68.20;;;;;;4993798;28;20204;-72
2022/04/07 03:36:40;;;;;;;1.00;1.00;;;11.80;67.80;;;;;;4994255;28;20190;-72
2022/04/07 03:39:06;;;;;;;1.65;1.65;;;11.90;68.60;;;;;;4995070;28;20189;-72
2022/04/07 03:41:32;;;;;;;3.67;1.65;;;11.70;69.20;;;;;;4995022;28;20643;-72
2022/04/07 03:43:58;;;;;;;1.52;1.42;;;11.70;68.60;;;;;;4997001;28;20303;-72
2022/04/07 03:46:24;;;;;;;1.27;1.27;;;11.60;69.30;;;;;;4987768;28;20234;-72
2022/04/07 03:48:50;;;;;;;6.00;1.73;;;11.60;69.10;;;;;;4996056;28;20589;-72
2022/04/07 03:51:17;;;;;;;1.40;1.30;;;11.60;69.80;;;;;;4997142;28;20185;-72
2022/04/07 03:53:43;;;;;;;1.45;1.45;;;11.60;70.10;;;;;;4997948;28;20274;-72
2022/04/07 03:56:09;;;;;;;2.95;1.33;;;11.50;69.60;;;;;;4993427;28;20189;-72
2022/04/07 03:58:35;;;;;;;1.50;1.50;;;11.50;69.70;;;;;;4997580;28;20189;-72
2022/04/07 04:01:00;;;;;;;3.58;1.30;;;11.60;69.60;;;;;;4995904;28;20499;-72
2022/04/07 04:03:26;;;;;;;4.18;1.85;;;11.60;69.20;;;;;;4992754;28;20655;-72
2022/04/07 04:05:52;;;;;;;2.10;1.75;;;11.50;70.50;;;;;;4997474;28;20944;-72
2022/04/07 04:08:18;;;;;;;1.63;1.53;;;11.40;70.30;;;;;;4989515;28;20270;-72
2022/04/07 04:10:43;;;;;;;2.80;1.27;;;11.20;71.10;;;;;;4993422;28;20188;-73
2022/04/07 04:13:09;;;;;;;3.35;1.63;;;11.20;71.20;;;;;;4998008;28;20196;-72
2022/04/07 04:15:35;;;;;;;1.70;1.60;;;11.20;70.70;;;;;;4995810;28;20188;-72
2022/04/07 04:18:00;;;;;;;3.07;1.67;;;11.20;70.20;;;;;;4992171;28;20188;-72
2022/04/07 04:20:26;;;;;;;1.48;1.38;;;11.30;69.90;;;;;;4993785;28;20190;-72
2022/04/07 04:22:52;;;;;;;2.78;1.33;;;11.40;69.80;;;;;;4994128;28;20194;-72
2022/04/07 04:25:18;;;;;;;1.63;1.52;;;11.40;70.20;;;;;;4994098;28;20177;-73
2022/04/07 04:27:43;;;;;;;1.80;1.70;;;11.40;70.00;;;;;;4996928;28;20192;-73
2022/04/07 04:30:10;;;;;;;2.72;1.60;;;11.40;69.90;;;;;;4992180;28;20216;-73
2022/04/07 04:32:35;;;;;;;1.27;1.27;;;11.50;69.90;;;;;;4994610;28;20563;-73
2022/04/07 04:35:02;;;;;;;1.77;1.67;;;11.50;70.10;;;;;;4996238;28;20196;-73
2022/04/07 04:37:28;;;;;;;1.73;1.73;;;11.50;69.80;;;;;;4995269;28;20667;-73
2022/04/07 04:39:54;;;;;;;1.20;1.20;;;11.60;70.00;;;;;;4992667;28;20255;-73
2022/04/07 04:42:20;;;;;;;1.35;1.35;;;11.60;69.50;;;;;;4994587;28;20212;-73
2022/04/07 04:44:46;;;;;;;1.98;1.75;;;11.60;69.60;;;;;;4996610;28;20182;-72
2022/04/07 04:47:12;;;;;;;1.85;1.75;;;11.70;70.20;;;;;;4988900;28;20209;-73
2022/04/07 04:49:41;;;;;;;3.67;1.80;;;11.70;69.60;;;;;;4989701;28;20742;-72
2022/04/07 04:52:08;;;;;;;1.90;1.80;;;11.70;69.30;;;;;;4993470;28;20177;-72
2022/04/07 04:54:34;;;;;;;1.65;1.55;;;11.80;69.50;;;;;;4995553;28;20297;-76
2022/04/07 04:57:00;;;;;;;1.92;1.83;;;11.80;68.80;;;;;;4991233;28;20181;-76
2022/04/07 04:59:26;;;;;;;1.15;1.15;;;11.80;70.20;;;;;;4987821;28;20301;-74
2022/04/07 05:01:51;;;;;;;2.15;1.70;;;11.80;69.80;;;;;;4990575;28;20177;-73
2022/04/07 05:04:17;;;;;;;1.60;1.60;;;11.80;69.90;;;;;;4991022;28;20264;-74
2022/04/07 05:06:42;;;;;;;4.90;1.98;;;11.70;70.20;;;;;;4990387;28;20181;-77
2022/04/07 05:09:08;;;;;;;5.10;1.70;;;11.70;71.10;;;;;;4990679;28;20224;-74
2022/04/07 05:11:34;;;;;;;1.70;1.70;;;11.60;70.10;;;;;;4989524;28;20182;-75
2022/04/07 05:14:00;;;;;;;1.95;1.85;;;11.60;70.70;;;;;;4992404;28;20190;-77
2022/04/07 05:16:26;;;;;;;1.83;1.75;;;11.60;70.30;;;;;;4991256;28;20213;-77
2022/04/07 05:18:52;;;;;;;2.17;1.85;;;11.70;70.30;;;;;;4996109;28;20247;-76
2022/04/07 05:21:18;;;;;;;1.83;1.67;;;11.70;70.20;;;;;;4996440;28;20178;-75
2022/04/07 05:23:44;;;;;;;2.15;1.90;;;11.70;69.90;;;;;;4989167;28;20212;-76
2022/04/07 05:26:13;;;;;;;1.70;1.60;;;11.80;70.20;;;;;;4992779;28;20754;-74
2022/04/07 05:28:40;;;;;;;2.08;1.98;;;11.80;70.00;;;;;;4988097;28;20680;-74
2022/04/07 05:31:06;;;;;;;3.22;2.08;;;11.80;70.20;;;;;;4988285;28;20192;-75
2022/04/07 05:33:32;;;;;;;2.53;2.20;;;11.80;70.70;;;;;;4993318;28;20189;-73
2022/04/07 05:35:58;;;;;;;4.23;2.20;;;11.80;71.00;;;;;;4992941;28;20185;-75
2022/04/07 05:38:23;;;;;;;2.65;2.45;;;11.90;70.70;;;;;;4985014;28;20193;-76
2022/04/07 05:40:49;;;;;;;2.70;2.53;;;11.80;70.90;;;;;;4993659;28;20702;-74
2022/04/07 05:43:15;;;;;;;3.40;2.97;;;11.80;71.90;;;;;;4990889;28;20178;-74
2022/04/07 05:45:44;;;;;;;4.07;1.92;;;11.90;71.40;;;;;;4991054;28;20260;-74
2022/04/07 05:48:10;;;;;;;2.17;2.03;;;11.80;70.90;;;;;;4993986;28;20272;-74
2022/04/07 05:50:36;;;;;;;2.72;2.22;;;11.90;70.50;;;;;;4992250;28;20209;-74
2022/04/07 05:53:02;;;;;;;4.53;1.98;;;11.80;70.50;;;;;;4988868;28;20188;-73
2022/04/07 05:55:27;;;;;;;7.13;2.25;;;11.90;70.00;;;;;;4993820;28;20187;-73
2022/04/07 05:57:54;;;;;;;1.88;1.75;;;12.00;69.50;;;;;;4995501;28;20195;-74
2022/04/07 06:00:20;;;;;;;1.70;1.60;;;12.00;69.50;;;;;;4995601;28;20336;-74
2022/04/07 06:02:47;;;;;;;8.77;2.00;;;12.10;69.10;;;;;;4992976;28;20270;-74
2022/04/07 06:05:16;;;;;;;2.55;2.08;;;12.10;69.10;;;;;;5022569;28;20205;-73
2022/04/07 06:07:43;;;;;;;4.35;2.03;;;12.10;68.70;;;;;;4993713;28;20565;-73
2022/04/07 06:10:09;;;;;;;4.00;1.80;;;12.00;68.40;;;;;;4991351;28;20425;-74
2022/04/07 06:12:34;;;;;;;2.85;1.67;;;12.10;68.30;;;;;;4993398;28;20692;-73
2022/04/07 06:15:00;;;;;;;2.97;1.92;;;12.20;68.40;;;;;;4992722;28;20697;-73
2022/04/07 06:17:41;;;;;;;2.33;1.73;;;12.00;69.10;;;;;;4989728;28;20274;-73
2022/04/07 06:20:08;;;;;;;1.88;1.63;;;11.90;69.00;;;;;;4991177;28;20263;-73
2022/04/07 06:22:34;;;;;;;2.70;2.20;;;12.00;68.50;;;;;;4990349;28;20192;-71
2022/04/07 06:25:00;;;;;;;3.80;1.40;;;12.10;68.80;;;;;;4989274;28;20185;-73
2022/04/07 06:27:36;;;;;;;1.90;1.67;;;12.00;68.50;;;;;;4994815;28;20181;-73
2022/04/07 06:30:04;;;;;;;1.77;1.67;;;12.10;68.30;;;;;;4991479;28;20224;-73
2022/04/07 06:32:29;;;;;;;2.20;1.63;;;12.20;68.50;;;;;;4994622;28;20185;-73
2022/04/07 06:34:55;;;;;;;2.03;1.92;;;12.20;68.20;;;;;;4994777;28;20193;-73
2022/04/07 06:37:21;;;;;;;2.05;1.95;;;12.20;68.30;;;;;;4991367;28;20653;-73
2022/04/07 06:39:46;;;;;;;2.70;2.03;;;12.10;68.50;;;;;;4992968;28;20185;-74
2022/04/07 06:42:12;;;;;;;1.92;1.83;;;12.20;68.40;;;;;;4992282;28;20185;-73
2022/04/07 06:44:38;;;;;;;2.78;1.75;;;12.20;68.30;;;;;;4992338;28;20201;-73
2022/04/07 06:47:04;;;;;;;2.85;1.48;;;12.30;68.20;;;;;;4992454;28;20188;-73
2022/04/07 06:49:29;;;;;;;1.90;1.77;;;12.40;68.20;;;;;;4992883;28;20236;-73
2022/04/07 06:51:55;;;;;;;2.20;2.10;;;12.50;68.30;;;;;;4987876;28;20192;-73
2022/04/07 06:54:21;;;;;;;2.47;2.15;;;12.60;67.90;;;;;;4993543;28;20315;-73
2022/04/07 06:56:47;;;;;;;3.72;1.98;;;12.70;68.00;;;;;;4993596;28;20188;-74
2022/04/07 06:59:12;;;;;;;3.75;2.20;;;12.80;67.70;;;;;;4993133;28;20776;-72
2022/04/07 07:01:38;;;;;;;2.95;2.45;;;12.80;67.20;;;;;;4993540;28;20235;-74
2022/04/07 07:04:04;;;;;;;3.10;2.45;;;12.90;66.90;;;;;;4996367;28;20543;-72
2022/04/07 07:06:30;;;;;;;2.53;2.33;;;13.00;67.20;;;;;;4991161;28;20327;-73
2022/04/07 07:08:56;;;;;;;4.00;2.28;;;13.10;67.20;;;;;;4987258;28;20734;-73
2022/04/07 07:11:21;;;;;;;2.88;1.85;;;13.10;67.20;;;;;;4998133;28;20185;-74
2022/04/07 07:13:47;;;;;;;4.18;2.55;;;13.10;67.30;;;;;;4996978;28;20192;-72
2022/04/07 07:16:13;;;;;;;2.80;2.60;;;13.10;66.50;;;;;;4998807;28;20192;-72
2022/04/07 07:18:42;;;;;;;5.15;2.53;;;13.10;66.70;;;;;;4996891;28;20890;-73
2022/04/07 07:21:08;;;;;;;8.75;2.30;;;13.10;66.60;;;;;;4997760;28;20259;-73
2022/04/07 07:23:33;;;;;;;1.92;1.83;;;13.10;66.60;;;;;;4994509;28;20272;-72
2022/04/07 07:25:59;;;;;;;3.95;1.92;;;13.10;67.00;;;;;;4998670;28;20177;-72
2022/04/07 07:28:25;;;;;;;2.85;2.63;;;13.20;67.30;;;;;;4995341;28;20213;-74
2022/04/07 07:30:50;;;;;;;4.72;1.88;;;13.20;66.70;;;;;;4996351;28;20634;-72
2022/04/07 07:33:17;;;;;;;1.95;1.85;;;13.30;66.60;;;;;;4993293;28;20190;-72
2022/04/07 07:35:45;;;;;;;3.75;2.20;;;13.40;66.60;;;;;;4992253;28;20181;-72
2022/04/07 07:38:11;;;;;;;2.30;2.10;;;13.50;66.50;;;;;;4993536;28;20193;-72
2022/04/07 07:40:37;;;;;;;6.43;2.40;;;13.60;66.30;;;;;;4991181;28;20185;-72
2022/04/07 07:43:03;;;;;;;2.17;2.08;;;13.60;66.00;;;;;;4990482;28;20182;-74
2022/04/07 07:45:35;;;;;;;2.63;2.42;;;13.60;66.20;;;;;;4991016;28;20204;-73
2022/04/07 07:48:00;;;;;;;4.22;2.20;;;13.70;66.00;;;;;;4990023;28;20577;-73
2022/04/07 07:50:26;;;;;;;3.85;2.47;;;13.70;65.80;;;;;;4994449;28;20197;-72
2022/04/07 07:52:52;;;;;;;2.38;2.20;;;13.80;65.60;;;;;;4990874;28;20208;-72
2022/04/07 07:55:18;;;;;;;1.95;1.85;;;13.80;65.40;;;;;;4993313;28;20190;-73
2022/04/07 07:57:44;;;;;;;2.67;2.25;;;13.90;65.60;;;;;;4986371;28;20341;-73
2022/04/07 08:00:14;;;;;;;3.45;2.28;;;13.90;66.50;;;;;;4989877;28;20268;-73
2022/04/07 08:02:40;;;;;;;2.83;2.20;;;13.90;66.20;;;;;;5019174;28;20506;-73
2022/04/07 08:05:07;;;;;;;2.70;2.50;;;13.90;66.50;;;;;;4991883;28;20193;-73
2022/04/07 08:07:37;;;;;;;3.28;2.42;;;14.00;66.20;;;;;;4985679;28;20194;-73
2022/04/07 08:10:03;;;;;;;2.45;2.35;;;14.00;66.50;;;;;;4990770;28;20252;-73
2022/04/07 08:12:28;;;;;;;3.25;2.83;;;14.10;66.60;;;;;;4992439;28;20659;-73
2022/04/07 08:14:54;;;;;;;3.08;2.28;;;14.10;66.00;;;;;;4991682;28;20192;-74
2022/04/07 08:17:21;;;;;;;3.00;2.22;;;14.10;66.20;;;;;;4989503;28;20193;-72
2022/04/07 08:19:47;;;;;;;3.10;2.47;;;14.10;66.40;;;;;;4988650;28;20293;-73
2022/04/07 08:22:13;;;;;;;3.45;2.58;;;14.30;65.90;;;;;;4993111;28;20177;-73
2022/04/07 08:24:39;;;;;;;4.30;2.03;;;14.30;65.70;;;;;;4991570;28;20192;-73
2022/04/07 08:27:05;;;;;;;2.75;2.55;;;14.50;65.40;;;;;;4989564;28;20270;-73
2022/04/07 08:29:31;;;;;;;2.70;2.50;;;14.60;65.20;;;;;;4992966;28;20317;-73
2022/04/07 08:31:57;;;;;;;7.00;2.28;;;14.70;65.20;;;;;;4990669;28;20460;-73
2022/04/07 08:34:22;;;;;;;2.85;2.65;;;14.70;65.00;;;;;;4989937;28;20291;-73
2022/04/07 08:36:48;;;;;;;2.60;2.15;;;14.80;64.50;;;;;;4993368;28;20181;-74
2022/04/07 08:39:14;;;;;;;3.53;2.38;;;14.90;63.90;;;;;;4996657;28;20189;-73
2022/04/07 08:41:44;;;;;;;2.40;2.25;;;14.90;64.00;;;;;;4988887;28;20185;-73
2022/04/07 08:44:10;;;;;;;2.30;1.98;;;14.90;63.30;;;;;;4984354;28;20195;-76
2022/04/07 08:46:35;;;;;;;2.33;2.20;;;14.90;64.00;;;;;;4983379;28;20178;-76
2022/04/07 08:49:04;;;;;;;1.80;1.80;;;15.00;64.00;;;;;;4991242;28;20259;-75
2022/04/07 08:51:30;;;;;;;5.07;2.53;;;15.00;63.90;;;;;;4986380;28;20777;-75
2022/04/07 08:53:56;;;;;;;2.13;1.92;;;15.10;63.30;;;;;;4995461;28;20181;-76
2022/04/07 08:56:23;;;;;;;3.92;2.13;;;15.20;63.10;;;;;;4991328;28;20189;-76
2022/04/07 08:58:50;;;;;;;2.38;2.28;;;15.30;63.20;;;;;;4991576;28;20217;-75
2022/04/07 09:01:15;;;;;;;5.28;2.00;;;15.40;62.90;;;;;;4996165;28;20186;-76
2022/04/07 09:03:43;;;;;;;4.43;1.73;;;15.50;62.70;;;;;;4991798;28;20192;-76
2022/04/07 09:06:10;;;;;;;1.95;1.85;;;15.50;62.20;;;;;;4990546;28;20264;-76
2022/04/07 09:08:37;;;;;;;3.42;2.15;;;15.60;62.40;;;;;;4997027;28;20217;-76
2022/04/07 09:11:05;;;;;;;3.03;2.10;;;15.70;62.30;;;;;;4994232;28;20694;-76
2022/04/07 09:13:42;;;;;;;7.97;2.58;;;15.70;62.50;;;;;;4996299;28;20196;-76
2022/04/07 09:16:13;;;;;;;4.20;2.25;;;15.80;62.40;;;;;;4991842;28;20268;-75
2022/04/07 09:18:45;;;;;;;6.53;2.17;;;15.90;62.40;;;;;;4988941;28;20217;-75
2022/04/07 09:21:27;;;;;;;1.98;1.85;;;15.90;62.00;;;;;;4991281;28;20193;-75
2022/04/07 09:23:54;;;;;;;2.38;2.03;;;15.90;62.20;;;;;;4987479;28;20223;-75
2022/04/07 09:26:21;;;;;;;3.20;1.98;;;15.80;62.50;;;;;;4991942;28;20196;-76
2022/04/07 09:28:46;;;;;;;2.47;2.20;;;15.70;62.70;;;;;;4988469;28;20288;-75
2022/04/07 09:31:14;;;;;;;2.47;2.13;;;15.70;63.00;;;;;;4995005;28;20278;-76
2022/04/07 09:33:40;;;;;;;3.72;2.30;;;15.60;63.20;;;;;;4997663;28;20178;-76
2022/04/07 09:36:21;;;;;;;3.15;2.28;;;15.50;63.50;;;;;;4991331;28;20239;-75
2022/04/07 09:38:57;;;;;;;2.83;2.60;;;15.40;63.90;;;;;;4990174;28;20180;-76
2022/04/07 09:41:26;;;;;;;7.32;2.03;;;15.40;64.40;;;;;;4993489;28;20181;-76
2022/04/07 09:43:59;;;;;;;3.13;2.10;;;15.30;64.30;;;;;;4995954;28;20177;-76
2022/04/07 09:46:38;;;;;;;2.38;2.22;;;15.30;63.90;;;;;;4993710;28;20217;-76
2022/04/07 09:49:11;;;;;;;2.53;2.33;;;15.30;63.50;;;;;;4991824;28;20213;-77
2022/04/07 09:51:40;;;;;;;2.28;2.17;;;15.10;64.60;;;;;;4993639;28;20173;-76
2022/04/07 09:54:11;;;;;;;5.95;2.22;;;15.00;64.30;;;;;;4990616;28;20189;-76
2022/04/07 09:56:37;;;;;;;2.58;2.47;;;14.90;63.80;;;;;;4994461;28;20876;-75
2022/04/07 09:59:07;;;;;;;3.20;2.35;;;14.80;64.20;;;;;;4991037;28;20196;-75
2022/04/07 10:01:35;;;;;;;5.22;2.22;;;14.50;65.40;;;;;;4990044;28;20180;-75
2022/04/07 10:04:03;;;;;;;8.60;1.90;;;14.20;68.90;;;;;;4989811;28;20192;-75
2022/04/07 10:06:32;;;;;;;3.60;1.40;;;13.70;72.70;;;;;;4996547;28;20185;-79
2022/04/07 10:09:03;;;;;;;2.17;1.85;;;12.90;74.00;;;;;;4994029;28;20240;-79
2022/04/07 10:11:31;;;;;;;4.00;1.58;;;12.70;76.60;;;;;;4994994;28;20185;-80
2022/04/07 10:13:57;;;;;;;3.75;1.70;;;12.40;77.00;;;;;;4993241;28;20182;-80
2022/04/07 10:16:25;;;;;;;5.18;2.53;;;12.10;79.70;;;;;;4995191;28;20269;-79
2022/04/07 10:19:10;;;;;;;8.05;3.50;;;11.70;80.60;;;;;;5009705;28;20193;-79
2022/04/07 10:21:55;;;;;;;5.90;2.95;;;11.40;84.10;;;;;;4993303;28;20291;-79
2022/04/07 10:24:31;;;;;;;14.20;3.37;;;11.40;84.50;;;;;;4990982;28;20200;-79
2022/04/07 10:27:00;;;;;;;6.18;3.40;;;11.30;81.80;;;;;;4992828;28;20242;-78
2022/04/07 10:29:27;;;;;;;9.37;4.60;;;11.40;83.10;;;;;;4996462;28;20239;-79
2022/04/07 10:32:11;;;;;;;6.25;3.78;;;11.40;82.80;;;;;;4993271;28;20177;-79
2022/04/07 10:34:42;;;;;;;4.90;4.20;;;11.40;83.20;;;;;;4997646;28;20191;-79
2022/04/07 10:37:09;;;;;;;4.28;3.38;;;11.40;84.00;;;;;;4989201;28;20197;-78
2022/04/07 10:39:39;;;;;;;5.03;4.53;;;11.40;84.10;;;;;;4994128;28;20188;-78
2022/04/07 10:42:05;;;;;;;4.53;4.23;;;11.50;84.50;;;;;;4991956;28;20189;-78
2022/04/07 10:44:33;;;;;;;7.40;4.10;;;11.50;84.90;;;;;;4992540;28;20296;-78
2022/04/07 10:47:09;;;;;;;5.80;4.07;;;11.50;86.60;;;;;;4996026;28;20278;-78
2022/04/07 10:49:35;;;;;;;8.50;4.53;;;11.30;87.00;;;;;;4990264;28;20251;-77
2022/04/07 10:52:06;;;;;;;5.57;4.37;;;11.40;87.00;;;;;;4992533;28;20204;-78
2022/04/07 10:54:33;;;;;;;4.07;3.77;;;11.40;85.60;;;;;;4991302;28;20184;-77
2022/04/07 10:57:01;;;;;;;5.50;4.13;;;11.50;85.90;;;;;;4988645;28;20181;-76
2022/04/07 10:59:37;;;;;;;5.93;3.47;;;11.50;85.10;;;;;;4994851;28;20295;-77
2022/04/07 11:02:11;;;;;;;4.73;3.33;;;11.60;85.40;;;;;;4994791;28;20200;-76
2022/04/07 11:04:54;;;;;;;3.88;2.90;;;11.60;86.20;;;;;;4988261;28;20206;-77
2022/04/07 11:07:23;;;;;;;3.15;2.95;;;11.70;85.40;;;;;;4991799;28;20219;-77
2022/04/07 11:09:50;;;;;;;5.07;3.93;;;11.80;86.00;;;;;;4990245;28;20223;-77
2022/04/07 11:12:22;;;;;;;4.80;2.80;;;11.90;85.90;;;;;;4998082;28;20176;-77
2022/04/07 11:14:49;;;;;;;7.80;2.92;;;11.90;84.80;;;;;;4997531;28;20185;-78
2022/04/07 11:17:35;;;;;;;3.08;2.88;;;12.10;85.40;;;;;;4995356;28;20177;-77
2022/04/07 11:20:21;;;;;;;3.40;2.72;;;12.20;84.40;;;;;;4982040;28;20558;-78
2022/04/07 11:23:01;;;;;;;4.43;3.00;;;12.30;83.90;;;;;;4996892;28;20188;-78
2022/04/07 11:25:32;;;;;;;3.15;2.75;;;12.40;85.20;;;;;;4991921;28;20186;-76
2022/04/07 11:28:18;;;;;;;3.63;2.70;;;12.50;83.50;;;;;;4997752;28;20186;-77
2022/04/07 11:31:00;;;;;;;3.60;3.17;;;12.60;82.70;;;;;;4990317;28;20209;-76
2022/04/07 11:33:28;;;;;;;3.00;2.80;;;12.80;83.40;;;;;;4985255;28;20758;-76
2022/04/07 11:36:00;;;;;;;5.65;2.15;;;12.90;83.20;;;;;;4999330;28;20170;-78
2022/04/07 11:38:35;;;;;;;3.97;3.05;;;13.10;82.70;;;;;;5011033;28;20204;-76
2022/04/07 11:41:12;;;;;;;2.13;2.00;;;13.30;81.60;;;;;;5013372;28;20228;-78
2022/04/07 11:43:43;;;;;;;3.63;2.55;;;13.50;81.20;;;;;;5008213;28;20201;-77
2022/04/07 11:46:10;;;;;;;4.85;2.90;;;13.60;81.60;;;;;;5008571;28;20181;-77
2022/04/07 11:48:38;;;;;;;3.17;2.88;;;13.80;80.10;;;;;;5014084;28;20234;-77
2022/04/07 11:51:15;;;;;;;8.35;4.20;;;13.90;80.70;;;;;;4995834;28;20689;-78
2022/04/07 11:53:55;;;;;;;7.70;3.83;;;14.00;79.80;;;;;;5008776;28;20186;-77
2022/04/07 11:56:27;;;;;;;3.80;3.60;;;14.10;79.00;;;;;;5008603;28;20185;-77
2022/04/07 11:58:54;;;;;;;4.47;4.15;;;14.20;79.70;;;;;;5004205;28;20201;-76
2022/04/07 12:01:20;;;;;;;4.30;4.00;;;14.20;79.00;;;;;;5010253;28;20197;-79
2022/04/07 12:03:53;;;;;;;3.70;3.20;;;14.30;79.50;;;;;;5000625;28;20603;-77
2022/04/07 12:06:27;;;;;;;4.03;3.67;;;14.30;78.80;;;;;;5001913;28;20695;-78
2022/04/07 12:08:55;;;;;;;3.88;3.58;;;14.30;77.30;;;;;;4995468;28;20221;-80
2022/04/07 12:11:22;;;;;;;5.97;3.80;;;14.20;78.60;;;;;;4998104;28;20211;-79
2022/04/07 12:13:54;;;;;;;7.45;3.88;;;14.20;78.20;;;;;;5005615;28;20621;-78
2022/04/07 12:16:22;;;;;;;3.30;3.13;;;14.30;78.30;;;;;;5001272;28;20192;-77
2022/04/07 12:18:59;;;;;;;6.43;3.97;;;14.30;77.90;;;;;;5016531;28;20274;-79
2022/04/07 12:21:26;;;;;;;3.15;2.65;;;14.50;76.50;;;;;;4988172;28;20197;-82
2022/04/07 12:24:11;;;;;;;5.00;3.50;;;14.50;77.50;;;;;;4999754;28;20177;-80
2022/04/07 12:26:48;;;;;;;4.50;3.38;;;14.60;76.30;;;;;;5020103;28;20271;-77
2022/04/07 12:29:16;;;;;;;3.67;2.97;;;14.70;76.10;;;;;;4986882;28;20217;-79
2022/04/07 12:31:42;;;;;;;3.20;2.92;;;14.70;76.20;;;;;;4992261;28;20193;-77
2022/04/07 12:34:11;;;;;;;6.47;3.55;;;14.60;76.50;;;;;;4994056;28;20714;-77
2022/04/07 12:36:41;;;;;;;3.60;3.30;;;14.70;77.60;;;;;;4989417;28;20209;-77
2022/04/07 12:39:12;;;;;;;6.20;3.30;;;14.70;77.70;;;;;;4998682;28;20239;-78
2022/04/07 12:41:43;;;;;;;4.72;2.92;;;15.00;77.70;;;;;;4993879;28;20188;-76
2022/04/07 12:44:10;;;;;;;6.40;3.55;;;15.40;78.40;;;;;;5023736;28;20193;-78
2022/04/07 12:46:54;;;;;;;3.92;2.92;;;15.80;78.70;;;;;;5005299;28;20185;-78
2022/04/07 12:49:28;;;;;;;2.85;2.47;;;16.50;77.10;;;;;;4992430;28;20759;-76
2022/04/07 12:52:11;;;;;;;6.28;2.70;;;17.20;76.70;;;;;;4995220;28;20226;-78